createdAt,value
2018-11-27T00:00:18.369Z,97993.23
2018-11-27T00:02:48.462Z,97981.95
2018-11-27T00:05:19.025Z,97997.69
2018-11-27T00:07:49.818Z,97994.78
2018-11-27T00:10:20.530Z,98002.14
2018-11-27T00:12:50.788Z,98005.08
2018-11-27T00:15:22.032Z,98004.19
2018-11-27T00:17:52.667Z,98006.81
2018-11-27T00:20:23.276Z,98007.55
2018-11-27T00:22:53.702Z,98011.27
2018-11-27T00:25:27.000Z,98016.77
2018-11-27T00:28:01.742Z,98009.59
2018-11-27T00:30:34.029Z,98007.86
2018-11-27T00:33:05.327Z,98013.48
2018-11-27T00:35:36.121Z,98014.44
2018-11-27T00:38:09.099Z,98015.75
2018-11-27T00:40:40.020Z,98025.66
2018-11-27T00:43:10.180Z,98025.47
2018-11-27T00:45:41.081Z,98028.58
2018-11-27T00:48:12.123Z,98037.51
2018-11-27T00:50:42.980Z,98034.93
2018-11-27T00:53:12.966Z,98035.84
2018-11-27T00:55:44.171Z,98036.44
2018-11-27T00:58:16.588Z,98043.52
2018-11-27T01:00:48.080Z,98047.55
2018-11-27T01:03:18.991Z,98045.65
2018-11-27T01:05:49.126Z,98046.77
2018-11-27T01:08:19.311Z,98046.77
2018-11-27T01:10:51.215Z,98041.42
2018-11-27T01:13:21.872Z,98048.70
2018-11-27T01:15:52.362Z,98048.11
2018-11-27T01:18:23.810Z,98047.52
2018-11-27T01:20:54.331Z,98050.84
2018-11-27T01:23:31.034Z,98054.59
2018-11-27T01:26:01.234Z,98061.99
2018-11-27T01:28:32.182Z,98060.05
2018-11-27T01:31:03.226Z,98058.14
2018-11-27T01:33:33.241Z,98065.45
2018-11-27T01:36:04.320Z,98060.60
2018-11-27T01:38:34.357Z,98064.77
2018-11-27T01:41:05.283Z,98064.96
2018-11-27T01:43:35.855Z,98058.60
2018-11-27T01:46:06.528Z,98064.65
2018-11-27T01:48:39.889Z,98062.33
2018-11-27T01:51:10.447Z,98062.55
2018-11-27T01:53:41.400Z,98062.02
2018-11-27T01:56:11.571Z,98061.93
2018-11-27T02:01:59.126Z,98069.54
2018-11-27T02:04:31.364Z,98060.52
2018-11-27T02:07:02.585Z,98057.80
2018-11-27T02:09:36.367Z,98059.34
2018-11-27T02:12:07.141Z,98057.62
2018-11-27T02:14:37.519Z,98059.66
2018-11-27T02:17:08.652Z,98062.78
2018-11-27T02:19:39.493Z,98068.64
2018-11-27T02:22:10.307Z,98072.00
2018-11-27T02:24:40.526Z,98073.00
2018-11-27T02:27:12.165Z,98055.03
2018-11-27T02:29:42.564Z,98073.81
2018-11-27T02:32:13.245Z,98080.48
2018-11-27T02:34:43.552Z,98077.57
2018-11-27T02:37:14.327Z,98079.17
2018-11-27T02:39:44.667Z,98086.05
2018-11-27T02:42:19.503Z,98080.75
2018-11-27T02:44:51.613Z,98086.74
2018-11-27T02:47:22.608Z,98090.91
2018-11-27T02:49:52.601Z,98096.67
2018-11-27T02:52:27.500Z,98096.27
2018-11-27T02:54:57.594Z,98094.85
2018-11-27T02:57:27.680Z,98094.85
2018-11-27T02:59:58.854Z,98105.66
2018-11-27T03:02:29.574Z,98108.01
2018-11-27T03:04:59.596Z,98109.52
2018-11-27T03:07:30.804Z,98120.84
2018-11-27T03:10:01.798Z,98112.33
2018-11-27T03:12:31.797Z,98126.20
2018-11-27T03:15:07.125Z,98121.57
2018-11-27T03:17:39.656Z,98124.92
2018-11-27T03:20:11.400Z,98125.02
2018-11-27T03:22:41.483Z,98125.83
2018-11-27T03:25:19.611Z,98129.37
2018-11-27T03:27:52.806Z,98130.69
2018-11-27T03:30:26.814Z,98135.63
2018-11-27T03:33:08.898Z,98133.94
2018-11-27T03:35:38.912Z,98134.44
2018-11-27T03:38:15.673Z,98136.35
2018-11-27T03:40:46.679Z,98136.97
2018-11-27T03:43:16.668Z,98138.79
2018-11-27T03:45:47.641Z,98138.29
2018-11-27T03:48:18.261Z,98143.64
2018-11-27T03:50:48.903Z,98147.99
2018-11-27T03:53:19.363Z,98142.73
2018-11-27T03:55:52.698Z,98161.75
2018-11-27T03:58:22.851Z,98156.80
2018-11-27T04:00:54.032Z,98159.52
2018-11-27T04:03:26.875Z,98162.66
2018-11-27T04:05:57.892Z,98162.25
2018-11-27T04:08:29.004Z,98162.75
2018-11-27T04:10:59.907Z,98163.16
2018-11-27T04:13:29.991Z,98164.28
2018-11-27T04:16:00.103Z,98165.59
2018-11-27T04:18:30.643Z,98163.69
2018-11-27T04:21:02.108Z,98165.59
2018-11-27T04:23:32.112Z,98167.09
2018-11-27T04:26:03.074Z,98166.31
2018-11-27T04:28:34.051Z,98172.27
2018-11-27T04:31:05.226Z,98172.89
2018-11-27T04:33:35.984Z,98169.23
2018-11-27T04:36:06.808Z,98166.31
2018-11-27T04:38:37.107Z,98177.94
2018-11-27T04:41:07.317Z,98167.91
2018-11-27T04:43:38.066Z,98171.05
2018-11-27T04:46:15.031Z,98175.09
2018-11-27T04:48:46.104Z,98184.92
2018-11-27T04:51:16.380Z,98190.19
2018-11-27T04:53:47.061Z,98188.87
2018-11-27T04:56:20.124Z,98190.19
2018-11-27T04:58:50.996Z,98197.05
2018-11-27T05:01:21.536Z,98202.02
2018-11-27T05:03:52.283Z,98202.02
2018-11-27T05:06:22.744Z,98206.25
2018-11-27T05:08:53.432Z,98199.98
2018-11-27T05:11:23.439Z,98206.88
2018-11-27T05:13:54.189Z,98212.42
2018-11-27T05:16:28.116Z,98215.37
2018-11-27T05:18:58.207Z,98221.63
2018-11-27T05:21:29.391Z,98215.69
2018-11-27T05:24:06.937Z,98222.55
2018-11-27T05:26:37.368Z,98222.86
2018-11-27T05:29:10.371Z,98231.75
2018-11-27T05:31:41.385Z,98231.47
2018-11-27T05:34:12.436Z,98238.05
2018-11-27T05:36:48.105Z,98240.46
2018-11-27T05:39:19.448Z,98244.91
2018-11-27T05:41:50.296Z,98246.22
2018-11-27T05:44:21.489Z,98245.51
2018-11-27T05:47:00.318Z,98247.05
2018-11-27T05:49:31.469Z,98255.55
2018-11-27T05:52:02.448Z,98253.31
2018-11-27T05:54:33.678Z,98257.26
2018-11-27T05:57:06.812Z,98258.89
2018-11-27T05:59:37.430Z,98253.72
2018-11-27T06:02:08.693Z,98258.17
2018-11-27T06:04:38.743Z,98260.20
2018-11-27T06:07:09.732Z,98263.44
2018-11-27T06:09:39.731Z,98262.02
2018-11-27T06:12:10.515Z,98268.28
2018-11-27T06:14:40.640Z,98270.20
2018-11-27T06:17:11.812Z,98149.32
2018-11-27T06:19:42.278Z,98274.38
2018-11-27T06:22:12.588Z,98274.28
2018-11-27T06:24:43.516Z,98272.74
2018-11-27T06:27:14.368Z,98277.79
2018-11-27T06:29:44.587Z,98285.69
2018-11-27T06:32:21.497Z,98285.91
2018-11-27T06:34:52.731Z,98296.44
2018-11-27T06:37:31.603Z,98291.45
2018-11-27T06:40:02.631Z,98305.25
2018-11-27T06:42:33.663Z,98303.09
2018-11-27T06:45:04.985Z,98311.23
2018-11-27T06:47:35.022Z,98310.81
2018-11-27T06:50:06.602Z,98323.16
2018-11-27T06:52:36.667Z,98327.42
2018-11-27T06:55:09.548Z,98332.88
2018-11-27T06:57:41.828Z,98334.91
2018-11-27T07:00:16.740Z,98333.08
2018-11-27T07:02:48.859Z,98340.56
2018-11-27T07:05:20.170Z,98343.92
2018-11-27T07:07:52.838Z,98340.66
2018-11-27T07:10:28.735Z,98353.73
2018-11-27T07:13:06.639Z,98347.24
2018-11-27T07:15:36.823Z,98353.83
2018-11-27T07:18:08.748Z,98350.89
2018-11-27T07:20:40.837Z,98351.01
2018-11-27T07:23:14.700Z,98359.41
2018-11-27T07:25:44.889Z,98358.69
2018-11-27T07:28:15.979Z,98360.01
2018-11-27T07:30:46.773Z,98370.63
2018-11-27T07:33:16.881Z,98371.77
2018-11-27T07:35:47.983Z,98374.69
2018-11-27T07:38:18.856Z,98373.69
2018-11-27T07:40:49.626Z,98375.00
2018-11-27T07:43:20.109Z,98377.95
2018-11-27T07:45:55.235Z,98387.45
2018-11-27T07:48:27.755Z,98385.73
2018-11-27T07:50:57.930Z,98385.83
2018-11-27T07:53:28.854Z,98387.96
2018-11-27T07:55:59.957Z,98388.38
2018-11-27T07:58:30.706Z,98393.24
2018-11-27T08:01:02.049Z,98398.30
2018-11-27T08:03:32.937Z,98406.70
2018-11-27T08:06:03.155Z,98409.03
2018-11-27T08:08:34.008Z,98408.23
2018-11-27T08:11:04.165Z,98410.77
2018-11-27T08:13:38.886Z,98412.38
2018-11-27T08:16:11.066Z,98424.45
2018-11-27T08:18:43.047Z,98427.78
2018-11-27T08:21:15.082Z,98424.23
2018-11-27T08:23:45.160Z,98428.58
2018-11-27T08:26:16.874Z,98437.50
2018-11-27T08:28:48.077Z,98436.91
2018-11-27T08:31:18.728Z,98442.37
2018-11-27T08:33:49.587Z,98438.63
2018-11-27T08:36:20.208Z,98441.55
2018-11-27T08:38:50.224Z,98447.94
2018-11-27T08:41:21.617Z,98446.02
2018-11-27T08:43:52.290Z,98448.23
2018-11-27T08:46:29.204Z,98453.02
2018-11-27T08:49:00.337Z,98459.78
2018-11-27T08:51:30.484Z,98455.34
2018-11-27T08:54:01.221Z,98455.75
2018-11-27T08:56:35.073Z,98462.25
2018-11-27T08:59:06.985Z,98467.80
2018-11-27T09:01:40.162Z,98463.67
2018-11-27T09:04:11.244Z,98477.73
2018-11-27T09:06:41.325Z,98481.41
2018-11-27T09:09:11.653Z,98454.12
2018-11-27T09:11:42.341Z,98483.33
2018-11-27T09:14:14.070Z,98485.44
2018-11-27T09:16:45.325Z,98488.39
2018-11-27T09:19:16.778Z,98490.02
2018-11-27T09:21:48.415Z,98497.31
2018-11-27T09:24:19.252Z,98497.50
2018-11-27T09:26:49.498Z,98499.23
2018-11-27T09:29:20.249Z,98498.11
2018-11-27T09:31:51.260Z,98509.25
2018-11-27T09:34:21.589Z,98503.08
2018-11-27T09:36:52.320Z,98509.77
2018-11-27T09:39:26.172Z,98514.63
2018-11-27T09:41:56.477Z,98512.59
2018-11-27T09:44:27.531Z,98518.09
2018-11-27T09:47:02.543Z,98523.64
2018-11-27T09:49:33.475Z,98519.78
2018-11-27T09:52:05.717Z,98526.19
2018-11-27T09:54:37.530Z,98526.79
2018-11-27T09:57:07.723Z,98523.43
2018-11-27T09:59:38.577Z,98528.39
2018-11-27T10:02:15.316Z,98526.66
2018-11-27T10:04:46.407Z,98529.52
2018-11-27T10:07:16.875Z,98527.17
2018-11-27T10:09:47.620Z,98533.67
2018-11-27T10:12:17.646Z,98533.45
2018-11-27T10:14:48.765Z,98533.04
2018-11-27T10:17:19.488Z,98533.95
2018-11-27T10:19:49.564Z,98538.00
2018-11-27T10:22:20.627Z,98543.78
2018-11-27T10:24:54.567Z,98543.45
2018-11-27T10:27:24.628Z,98549.02
2018-11-27T10:29:55.567Z,98545.97
2018-11-27T10:32:26.668Z,98540.67
2018-11-27T10:34:56.644Z,98542.45
2018-11-27T10:37:26.748Z,98541.20
2018-11-27T10:39:57.754Z,98539.36
2018-11-27T10:42:30.243Z,98543.78
2018-11-27T10:44:58.766Z,98541.61
2018-11-27T10:47:29.840Z,98551.46
2018-11-27T10:50:01.391Z,98564.66
2018-11-27T10:52:34.577Z,98561.20
2018-11-27T10:55:08.058Z,98561.09
2018-11-27T10:57:40.960Z,98564.80
2018-11-27T11:00:25.244Z,98561.91
2018-11-27T11:04:03.735Z,98565.79
2018-11-27T11:06:34.891Z,98567.59
2018-11-27T11:09:09.954Z,98562.67
2018-11-27T11:11:45.528Z,98559.97
2018-11-27T11:14:15.810Z,98558.98
2018-11-27T11:16:46.793Z,98563.45
2018-11-27T11:19:18.485Z,98566.65
2018-11-27T11:21:47.868Z,98567.58
2018-11-27T11:24:23.815Z,98577.88
2018-11-27T11:26:57.655Z,98578.48
2018-11-27T11:29:27.939Z,98578.59
2018-11-27T11:31:58.954Z,98572.82
2018-11-27T11:34:30.027Z,98578.98
2018-11-27T11:37:00.097Z,98576.10
2018-11-27T11:39:31.504Z,98580.59
2018-11-27T11:42:04.100Z,98582.55
2018-11-27T11:44:34.999Z,98583.37
2018-11-27T11:47:06.650Z,98589.91
2018-11-27T11:49:39.014Z,98600.98
2018-11-27T11:52:12.848Z,98597.93
2018-11-27T11:54:43.739Z,98603.84
2018-11-27T11:57:14.166Z,98602.95
2018-11-27T11:59:50.929Z,98599.11
2018-11-27T12:02:23.255Z,98600.53
2018-11-27T12:04:55.094Z,98605.67
2018-11-27T12:07:26.180Z,98607.00
2018-11-27T12:09:58.016Z,98610.86
2018-11-27T12:12:28.172Z,98611.36
2018-11-27T12:14:59.197Z,98618.97
2018-11-27T12:17:33.034Z,98621.11
2018-11-27T12:20:03.306Z,98619.69
2018-11-27T12:22:35.671Z,98629.63
2018-11-27T12:25:12.032Z,98627.70
2018-11-27T12:27:44.119Z,98628.39
2018-11-27T12:30:18.123Z,98626.75
2018-11-27T12:32:48.379Z,98623.10
2018-11-27T12:35:23.593Z,98624.60
2018-11-27T12:37:56.035Z,98634.15
2018-11-27T12:40:28.880Z,98632.62
2018-11-27T12:43:01.367Z,98639.77
2018-11-27T12:45:33.784Z,98643.72
2018-11-27T12:48:04.652Z,98648.05
2018-11-27T12:50:46.448Z,98656.79
2018-11-27T12:53:18.166Z,98652.33
2018-11-27T12:55:50.375Z,98654.05
2018-11-27T12:58:20.431Z,98659.63
2018-11-27T13:00:52.493Z,98662.58
2018-11-27T13:03:23.531Z,98660.35
2018-11-27T13:06:01.552Z,98659.94
2018-11-27T13:08:37.385Z,98660.44
2018-11-27T13:11:11.455Z,98659.48
2018-11-27T13:13:38.359Z,98668.27
2018-11-27T13:16:09.463Z,98672.56
2018-11-27T13:18:42.623Z,98679.39
2018-11-27T13:21:13.623Z,98672.56
2018-11-27T13:23:50.359Z,98681.03
2018-11-27T13:26:20.543Z,98680.81
2018-11-27T13:28:52.682Z,98681.55
2018-11-27T13:31:28.653Z,98684.09
2018-11-27T13:34:11.655Z,98685.73
2018-11-27T13:36:41.940Z,98688.78
2018-11-27T13:39:24.016Z,98695.61
2018-11-27T13:41:54.132Z,98698.84
2018-11-27T13:44:26.772Z,98702.30
2018-11-27T13:46:58.599Z,98702.42
2018-11-27T13:49:29.503Z,98709.02
2018-11-27T13:52:01.642Z,98716.25
2018-11-27T13:54:33.390Z,98718.66
2018-11-27T13:57:06.196Z,98723.56
2018-11-27T13:59:36.704Z,98724.78
2018-11-27T14:02:12.491Z,98736.02
2018-11-27T14:04:43.743Z,98730.55
2018-11-27T14:07:15.893Z,98730.23
2018-11-27T14:09:46.876Z,98737.55
2018-11-27T14:12:17.313Z,98743.44
2018-11-27T14:14:47.731Z,98745.48
2018-11-27T14:17:17.936Z,98746.19
2018-11-27T14:19:48.677Z,98735.63
2018-11-27T14:22:25.114Z,98745.18
2018-11-27T14:24:51.698Z,98755.83
2018-11-27T14:27:23.773Z,98753.58
2018-11-27T14:29:55.837Z,98758.55
2018-11-27T14:32:30.753Z,98757.36
2018-11-27T14:35:01.827Z,98763.62
2018-11-27T14:37:31.935Z,98772.85
2018-11-27T14:40:02.952Z,98775.60
2018-11-27T14:42:34.137Z,98781.06
2018-11-27T14:45:08.909Z,98784.31
2018-11-27T14:47:39.776Z,98787.34
2018-11-27T14:50:12.625Z,98794.34
2018-11-27T14:52:43.889Z,98800.72
2018-11-27T14:55:26.875Z,98797.88
2018-11-27T14:57:56.957Z,98801.08
2018-11-27T15:00:28.257Z,98804.54
2018-11-27T15:03:01.575Z,98809.60
2018-11-27T15:05:33.191Z,98810.09
2018-11-27T15:08:10.486Z,98809.27
2018-11-27T15:10:41.935Z,98819.72
2018-11-27T15:13:13.660Z,98817.75
2018-11-27T15:15:46.000Z,98823.67
2018-11-27T15:18:17.136Z,98827.37
2018-11-27T15:20:50.832Z,98839.66
2018-11-27T15:23:20.925Z,98839.23
2018-11-27T15:25:51.965Z,98846.20
2018-11-27T15:28:24.143Z,98843.13
2018-11-27T15:30:56.270Z,98842.02
2018-11-27T15:33:26.868Z,98843.52
2018-11-27T15:35:57.021Z,98856.41
2018-11-27T15:38:27.061Z,98859.72
2018-11-27T15:40:57.075Z,98864.70
2018-11-27T15:43:32.963Z,98866.91
2018-11-27T15:46:03.069Z,98865.09
2018-11-27T15:48:34.319Z,98874.43
2018-11-27T15:51:05.396Z,98884.86
2018-11-27T15:53:44.028Z,98888.70
2018-11-27T15:56:14.322Z,98892.53
2018-11-27T15:58:48.093Z,98898.97
2018-11-27T16:01:18.139Z,98907.09
2018-11-27T16:03:49.151Z,98908.29
2018-11-27T16:06:19.661Z,98919.16
2018-11-27T16:08:50.201Z,98916.92
2018-11-27T16:11:20.750Z,98924.92
2018-11-27T16:13:55.351Z,98933.20
2018-11-27T16:16:23.889Z,98938.86
2018-11-27T16:18:55.284Z,98946.14
2018-11-27T16:21:26.301Z,98952.09
2018-11-27T16:23:56.315Z,98956.69
2018-11-27T16:26:27.368Z,98961.63
2018-11-27T16:29:01.071Z,98962.33
2018-11-27T16:31:31.498Z,98963.33
2018-11-27T16:34:02.288Z,98973.37
2018-11-27T16:36:33.378Z,98970.91
2018-11-27T16:39:10.764Z,98970.98
2018-11-27T16:41:43.409Z,98974.62
2018-11-27T16:44:14.324Z,98982.89
2018-11-27T16:46:45.141Z,98980.34
2018-11-27T16:49:15.488Z,98982.66
2018-11-27T16:51:46.354Z,98984.79
2018-11-27T16:54:17.301Z,98995.95
2018-11-27T16:56:47.483Z,98998.16
2018-11-27T16:59:17.520Z,99002.23
2018-11-27T17:01:55.433Z,99006.06
2018-11-27T17:04:25.546Z,99012.45
2018-11-27T17:06:56.415Z,99017.02
2018-11-27T17:09:26.683Z,99015.03
2018-11-27T17:11:57.504Z,99014.71
2018-11-27T17:14:27.624Z,99014.22
2018-11-27T17:16:58.553Z,99007.30
2018-11-27T17:19:31.608Z,99017.80
2018-11-27T17:22:02.485Z,99018.98
2018-11-27T17:24:32.579Z,99022.16
2018-11-27T17:27:03.588Z,99022.37
2018-11-27T17:29:34.557Z,99026.81
2018-11-27T17:32:07.795Z,99035.53
2018-11-27T17:34:39.617Z,99043.24
2018-11-27T17:37:11.635Z,99047.27
2018-11-27T17:39:42.435Z,99042.24
2018-11-27T17:42:12.549Z,99047.19
2018-11-27T17:44:43.641Z,99046.32
2018-11-27T17:47:17.854Z,99046.48
2018-11-27T17:49:50.697Z,99051.01
2018-11-27T17:52:20.735Z,99055.78
2018-11-27T17:54:52.684Z,99051.70
2018-11-27T17:57:23.751Z,99052.37
2018-11-27T17:59:53.772Z,99057.14
2018-11-27T18:02:27.733Z,99061.55
2018-11-27T18:05:01.572Z,99069.38
2018-11-27T18:07:32.708Z,99074.97
2018-11-27T18:10:02.711Z,99081.88
2018-11-27T18:12:33.953Z,99081.42
2018-11-27T18:15:05.137Z,99085.94
2018-11-27T18:17:37.893Z,99084.92
2018-11-27T18:20:10.145Z,99090.19
2018-11-27T18:22:41.885Z,99085.62
2018-11-27T18:25:14.815Z,99091.34
2018-11-27T18:27:47.207Z,99090.88
2018-11-27T18:30:18.863Z,99088.61
2018-11-27T18:32:55.750Z,99095.89
2018-11-27T18:35:26.833Z,99089.60
2018-11-27T18:37:56.875Z,99101.28
2018-11-27T18:40:27.789Z,99114.33
2018-11-27T18:42:57.970Z,99113.63
2018-11-27T18:45:31.248Z,99111.36
2018-11-27T18:48:02.011Z,99105.48
2018-11-27T18:50:39.968Z,99100.55
2018-11-27T18:53:11.909Z,99103.08
2018-11-27T18:55:43.042Z,99114.63
2018-11-27T18:58:14.030Z,99111.05
2018-11-27T19:00:44.234Z,99118.34
2018-11-27T19:03:15.304Z,99116.46
2018-11-27T19:05:46.411Z,99119.19
2018-11-27T19:08:17.659Z,99119.77
2018-11-27T19:10:56.652Z,99119.55
2018-11-27T19:13:27.954Z,99122.89
2018-11-27T19:15:58.133Z,99127.89
2018-11-27T19:18:29.147Z,99125.97
2018-11-27T19:21:00.973Z,99126.73
2018-11-27T19:23:31.925Z,99128.27
2018-11-27T19:26:04.003Z,99133.25
2018-11-27T19:28:35.144Z,99140.16
2018-11-27T19:31:06.316Z,99140.56
2018-11-27T19:33:37.244Z,99141.45
2018-11-27T19:36:08.186Z,99153.62
2018-11-27T19:38:41.356Z,99156.11
2018-11-27T19:41:12.078Z,99160.05
2018-11-27T19:43:42.199Z,99167.30
2018-11-27T19:46:14.208Z,99160.39
2018-11-27T19:48:46.373Z,99163.31
2018-11-27T19:51:17.512Z,99162.14
2018-11-27T19:53:47.826Z,99173.47
2018-11-27T19:56:17.984Z,99177.42
2018-11-27T19:58:49.179Z,99177.81
2018-11-27T20:01:19.834Z,99175.19
2018-11-27T20:03:50.214Z,99180.73
2018-11-27T20:06:20.901Z,99187.00
2018-11-27T20:08:51.278Z,99184.86
2018-11-27T20:11:21.366Z,99186.81
2018-11-27T20:13:52.922Z,99199.06
2018-11-27T20:16:29.258Z,99203.98
2018-11-27T20:19:00.316Z,99205.16
2018-11-27T20:21:30.443Z,99212.36
2018-11-27T20:24:01.421Z,99213.81
2018-11-27T20:26:31.430Z,99219.08
2018-11-27T20:29:03.430Z,99215.80
2018-11-27T20:31:36.410Z,99223.69
2018-11-27T20:34:13.337Z,99223.02
2018-11-27T20:36:44.169Z,99231.43
2018-11-27T20:39:14.517Z,99230.31
2018-11-27T20:41:45.060Z,99233.95
2018-11-27T20:44:17.488Z,99233.66
2018-11-27T20:46:48.427Z,99238.24
2018-11-27T20:49:21.196Z,99242.18
2018-11-27T20:51:52.498Z,99243.49
2018-11-27T20:54:24.561Z,99244.17
2018-11-27T20:56:55.788Z,99261.59
2018-11-27T20:59:27.606Z,99257.13
2018-11-27T21:02:04.465Z,99255.63
2018-11-27T21:04:34.946Z,99252.66
2018-11-27T21:07:05.813Z,99256.25
2018-11-27T21:09:36.204Z,99256.30
2018-11-27T21:12:06.806Z,99262.71
2018-11-27T21:14:37.319Z,99260.58
2018-11-27T21:17:07.836Z,99262.56
2018-11-27T21:19:39.607Z,99271.30
2018-11-27T21:22:10.505Z,99267.52
2018-11-27T21:24:40.758Z,99267.67
2018-11-27T21:27:11.754Z,99271.45
2018-11-27T21:29:45.533Z,99280.31
2018-11-27T21:32:16.732Z,99281.33
2018-11-27T21:34:50.021Z,99290.18
2018-11-27T21:37:21.668Z,99274.91
2018-11-27T21:39:51.735Z,99278.70
2018-11-27T21:42:24.543Z,99282.30
2018-11-27T21:44:55.928Z,99285.08
2018-11-27T21:47:29.644Z,99285.42
2018-11-27T21:49:59.723Z,99293.14
2018-11-27T21:52:30.728Z,99302.98
2018-11-27T21:55:00.996Z,99287.44
2018-11-27T21:57:31.752Z,99300.05
2018-11-27T22:00:01.844Z,99298.40
2018-11-27T22:02:37.759Z,99302.64
2018-11-27T22:05:09.483Z,99296.44
2018-11-27T22:07:42.245Z,99303.47
2018-11-27T22:10:17.245Z,99303.12
2018-11-27T22:12:50.231Z,99298.06
2018-11-27T22:15:31.907Z,99297.39
2018-11-27T22:18:03.331Z,99304.97
2018-11-27T22:20:36.108Z,99309.88
2018-11-27T22:23:10.529Z,99323.02
2018-11-27T22:25:40.662Z,99316.11
2018-11-27T22:28:11.139Z,99322.19
2018-11-27T22:30:41.741Z,99328.61
2018-11-27T22:33:11.871Z,99334.99
2018-11-27T22:35:42.994Z,99331.25
2018-11-27T22:38:13.003Z,99343.72
2018-11-27T22:40:49.822Z,99346.34
2018-11-27T22:43:21.144Z,99353.11
2018-11-27T22:45:52.000Z,99352.95
2018-11-27T22:48:29.777Z,99360.16
2018-11-27T22:51:01.950Z,99366.89
2018-11-27T22:53:32.835Z,99365.39
2018-11-27T22:56:03.227Z,99368.67
2018-11-27T22:58:34.148Z,99365.71
2018-11-27T23:01:05.176Z,99368.67
2018-11-27T23:03:35.200Z,99372.62
2018-11-27T23:06:05.879Z,99372.12
2018-11-27T23:08:36.149Z,99375.58
2018-11-27T23:11:06.820Z,99375.24
2018-11-27T23:13:37.103Z,99369.66
2018-11-27T23:16:07.408Z,99381.32
2018-11-27T23:18:38.241Z,99379.49
2018-11-27T23:21:08.941Z,99384.09
2018-11-27T23:23:39.099Z,99382.14
2018-11-27T23:26:09.167Z,99382.16
2018-11-27T23:28:40.681Z,99379.84
2018-11-27T23:31:10.863Z,99377.20
2018-11-27T23:33:41.244Z,99378.23
2018-11-27T23:36:11.773Z,99373.77
2018-11-27T23:38:42.135Z,99376.06
2018-11-27T23:41:14.382Z,99386.09
2018-11-27T23:43:45.368Z,99377.54
2018-11-27T23:46:15.895Z,99374.92
2018-11-27T23:48:46.236Z,99379.53
2018-11-27T23:51:17.169Z,99387.72
2018-11-27T23:53:47.891Z,99380.84
2018-11-27T23:56:18.035Z,99381.64
2018-11-27T23:58:49.342Z,99385.43
